sensor_id;sensor_type;location;lat;lon;timestamp;pressure;altitude;pressure_sealevel;temperature;humidity
40992;BME280;29633;49.168;9.848;2023-05-14T00:01:17;96856.69;;;16.96;67.61
40992;BME280;29633;49.168;9.848;2023-05-14T00:03:43;96851.13;;;16.91;67.51
40992;BME280;29633;49.168;9.848;2023-05-14T00:06:08;96853.09;;;16.89;67.63
40992;BME280;29633;49.168;9.848;2023-05-14T00:08:35;96858.63;;;16.86;67.50
40992;BME280;29633;49.168;9.848;2023-05-14T00:11:01;96855.34;;;16.84;67.56
40992;BME280;29633;49.168;9.848;2023-05-14T00:13:26;96846.84;;;16.82;67.64
40992;BME280;29633;49.168;9.848;2023-05-14T00:15:52;96844.53;;;16.79;67.41
40992;BME280;29633;49.168;9.848;2023-05-14T00:18:18;96845.69;;;16.76;67.50
40992;BME280;29633;49.168;9.848;2023-05-14T00:20:43;96843.38;;;16.73;67.42
40992;BME280;29633;49.168;9.848;2023-05-14T00:23:09;96845.66;;;16.68;67.60
40992;BME280;29633;49.168;9.848;2023-05-14T00:25:35;96841.06;;;16.62;67.59
40992;BME280;29633;49.168;9.848;2023-05-14T00:28:01;96843.03;;;16.60;67.71
40992;BME280;29633;49.168;9.848;2023-05-14T00:30:27;96841.38;;;16.59;67.42
40992;BME280;29633;49.168;9.848;2023-05-14T00:32:52;96836.56;;;16.54;67.63
40992;BME280;29633;49.168;9.848;2023-05-14T00:35:18;96830.69;;;16.52;67.57
40992;BME280;29633;49.168;9.848;2023-05-14T00:37:45;96834.28;;;16.51;67.61
40992;BME280;29633;49.168;9.848;2023-05-14T00:40:11;96827.56;;;16.49;67.54
40992;BME280;29633;49.168;9.848;2023-05-14T00:42:38;96828.88;;;16.45;67.53
40992;BME280;29633;49.168;9.848;2023-05-14T00:45:05;96821.47;;;16.40;67.59
40992;BME280;29633;49.168;9.848;2023-05-14T00:47:31;96823.75;;;16.35;67.54
40992;BME280;29633;49.168;9.848;2023-05-14T00:49:57;96818.81;;;16.32;67.50
40992;BME280;29633;49.168;9.848;2023-05-14T00:52:23;96826.84;;;16.31;67.41
40992;BME280;29633;49.168;9.848;2023-05-14T00:54:49;96827.97;;;16.28;67.60
40992;BME280;29633;49.168;9.848;2023-05-14T00:57:15;96823.06;;;16.25;67.55
40992;BME280;29633;49.168;9.848;2023-05-14T00:59:41;96825.84;;;16.23;67.54
40992;BME280;29633;49.168;9.848;2023-05-14T01:02:07;96825.34;;;16.20;67.44
40992;BME280;29633;49.168;9.848;2023-05-14T01:04:33;96820.38;;;16.17;67.39
40992;BME280;29633;49.168;9.848;2023-05-14T01:10:20;96824.09;;;16.06;67.53
40992;BME280;29633;49.168;9.848;2023-05-14T01:12:55;96822.81;;;16.02;67.59
40992;BME280;29633;49.168;9.848;2023-05-14T01:15:27;96830.78;;;16.01;67.51
40992;BME280;29633;49.168;9.848;2023-05-14T01:18:10;96826.00;;;15.96;67.58
40992;BME280;29633;49.168;9.848;2023-05-14T01:20:37;96826.19;;;15.95;67.72
40992;BME280;29633;49.168;9.848;2023-05-14T01:23:03;96822.06;;;15.92;67.58
40992;BME280;29633;49.168;9.848;2023-05-14T01:25:29;96821.56;;;15.89;67.49
40992;BME280;29633;49.168;9.848;2023-05-14T01:28:23;96817.78;;;15.83;67.55
40992;BME280;29633;49.168;9.848;2023-05-14T01:31:28;96816.31;;;15.81;67.53
40992;BME280;29633;49.168;9.848;2023-05-14T01:33:56;96816.75;;;15.76;67.44
40992;BME280;29633;49.168;9.848;2023-05-14T01:36:23;96814.47;;;15.73;67.57
40992;BME280;29633;49.168;9.848;2023-05-14T01:38:48;96812.94;;;15.70;67.47
40992;BME280;29633;49.168;9.848;2023-05-14T01:41:16;96815.88;;;15.67;67.51
40992;BME280;29633;49.168;9.848;2023-05-14T01:43:43;96820.44;;;15.65;67.41
40992;BME280;29633;49.168;9.848;2023-05-14T01:46:09;96817.97;;;15.64;67.52
40992;BME280;29633;49.168;9.848;2023-05-14T01:48:35;96820.75;;;15.62;67.52
40992;BME280;29633;49.168;9.848;2023-05-14T01:51:02;96825.31;;;15.60;67.39
40992;BME280;29633;49.168;9.848;2023-05-14T01:53:28;96828.22;;;15.57;67.54
40992;BME280;29633;49.168;9.848;2023-05-14T01:55:54;96835.25;;;15.57;67.56
40992;BME280;29633;49.168;9.848;2023-05-14T01:58:19;96831.97;;;15.55;67.54
40992;BME280;29633;49.168;9.848;2023-05-14T02:00:45;96831.16;;;15.54;67.60
40992;BME280;29633;49.168;9.848;2023-05-14T02:03:11;96825.25;;;15.52;67.45
40992;BME280;29633;49.168;9.848;2023-05-14T02:05:36;96826.38;;;15.50;67.39
40992;BME280;29633;49.168;9.848;2023-05-14T02:08:02;96829.09;;;15.48;67.60
40992;BME280;29633;49.168;9.848;2023-05-14T02:10:27;96821.41;;;15.47;67.52
40992;BME280;29633;49.168;9.848;2023-05-14T02:12:53;96819.78;;;15.46;67.50
40992;BME280;29633;49.168;9.848;2023-05-14T02:15:19;96825.16;;;15.44;67.22
40992;BME280;29633;49.168;9.848;2023-05-14T02:17:44;96824.34;;;15.44;67.56
40992;BME280;29633;49.168;9.848;2023-05-14T02:20:13;96820.91;;;15.43;67.54
40992;BME280;29633;49.168;9.848;2023-05-14T02:22:39;96825.16;;;15.44;67.49
40992;BME280;29633;49.168;9.848;2023-05-14T02:25:09;96825.97;;;15.45;67.54
40992;BME280;29633;49.168;9.848;2023-05-14T02:27:35;96817.97;;;15.46;67.49
40992;BME280;29633;49.168;9.848;2023-05-14T02:30:02;96823.06;;;15.48;67.58
40992;BME280;29633;49.168;9.848;2023-05-14T02:32:27;96808.19;;;15.48;67.57
40992;BME280;29633;49.168;9.848;2023-05-14T02:34:53;96804.50;;;15.51;67.61
40992;BME280;29633;49.168;9.848;2023-05-14T02:37:18;96804.34;;;15.52;67.54
40992;BME280;29633;49.168;9.848;2023-05-14T02:39:44;96806.94;;;15.52;67.63
40992;BME280;29633;49.168;9.848;2023-05-14T02:42:10;96797.31;;;15.53;67.70
40992;BME280;29633;49.168;9.848;2023-05-14T02:44:36;96802.41;;;15.54;67.67
40992;BME280;29633;49.168;9.848;2023-05-14T02:47:01;96798.00;;;15.55;67.67
40992;BME280;29633;49.168;9.848;2023-05-14T02:49:27;96805.66;;;15.56;67.73
40992;BME280;29633;49.168;9.848;2023-05-14T02:51:52;96795.22;;;15.56;67.55
40992;BME280;29633;49.168;9.848;2023-05-14T02:54:21;96801.28;;;15.57;67.74
40992;BME280;29633;49.168;9.848;2023-05-14T02:56:47;96794.13;;;15.59;67.70
40992;BME280;29633;49.168;9.848;2023-05-14T02:59:12;96799.16;;;15.60;67.73
40992;BME280;29633;49.168;9.848;2023-05-14T03:01:38;96797.25;;;15.62;67.72
40992;BME280;29633;49.168;9.848;2023-05-14T03:04:04;96800.66;;;15.63;67.83
40992;BME280;29633;49.168;9.848;2023-05-14T03:06:29;96800.50;;;15.64;67.73
40992;BME280;29633;49.168;9.848;2023-05-14T03:08:55;96799.53;;;15.65;67.81
40992;BME280;29633;49.168;9.848;2023-05-14T03:11:21;96810.00;;;15.65;67.81
40992;BME280;29633;49.168;9.848;2023-05-14T03:13:47;96799.69;;;15.64;67.92
40992;BME280;29633;49.168;9.848;2023-05-14T03:16:15;96806.38;;;15.66;67.84
40992;BME280;29633;49.168;9.848;2023-05-14T03:18:40;96796.75;;;15.67;67.81
40992;BME280;29633;49.168;9.848;2023-05-14T03:21:06;96804.78;;;15.65;68.00
40992;BME280;29633;49.168;9.848;2023-05-14T03:23:33;96803.78;;;15.66;67.99
40992;BME280;29633;49.168;9.848;2023-05-14T03:26:00;96802.97;;;15.66;68.08
40992;BME280;29633;49.168;9.848;2023-05-14T03:28:26;96799.22;;;15.68;68.02
40992;BME280;29633;49.168;9.848;2023-05-14T03:30:52;96801.53;;;15.71;67.99
40992;BME280;29633;49.168;9.848;2023-05-14T03:33:17;96800.56;;;15.72;68.03
40992;BME280;29633;49.168;9.848;2023-05-14T03:35:43;96804.66;;;15.75;67.93
40992;BME280;29633;49.168;9.848;2023-05-14T03:38:08;96803.50;;;15.77;67.91
40992;BME280;29633;49.168;9.848;2023-05-14T03:40:34;96803.50;;;15.77;67.84
40992;BME280;29633;49.168;9.848;2023-05-14T03:43:00;96802.41;;;15.80;67.86
40992;BME280;29633;49.168;9.848;2023-05-14T03:45:26;96803.22;;;15.81;68.16
40992;BME280;29633;49.168;9.848;2023-05-14T03:47:53;96800.44;;;15.82;67.83
40992;BME280;29633;49.168;9.848;2023-05-14T03:50:21;96798.00;;;15.81;67.83
40992;BME280;29633;49.168;9.848;2023-05-14T03:52:50;96795.22;;;15.82;67.87
40992;BME280;29633;49.168;9.848;2023-05-14T03:55:20;96787.22;;;15.84;67.98
40992;BME280;29633;49.168;9.848;2023-05-14T03:57:46;96802.09;;;15.83;68.06
40992;BME280;29633;49.168;9.848;2023-05-14T04:00:13;96794.56;;;15.80;68.09
40992;BME280;29633;49.168;9.848;2023-05-14T04:02:38;96797.00;;;15.82;68.16
40992;BME280;29633;49.168;9.848;2023-05-14T04:05:04;96796.03;;;15.83;68.09
40992;BME280;29633;49.168;9.848;2023-05-14T04:07:30;96801.91;;;15.85;68.16
40992;BME280;29633;49.168;9.848;2023-05-14T04:09:56;96798.34;;;15.86;68.14
40992;BME280;29633;49.168;9.848;2023-05-14T04:12:21;96802.59;;;15.87;68.09
40992;BME280;29633;49.168;9.848;2023-05-14T04:14:47;96801.63;;;15.88;68.12
40992;BME280;29633;49.168;9.848;2023-05-14T04:17:12;96802.28;;;15.90;68.10
40992;BME280;29633;49.168;9.848;2023-05-14T04:19:38;96800.31;;;15.92;68.04
40992;BME280;29633;49.168;9.848;2023-05-14T04:22:04;96797.56;;;15.93;67.71
40992;BME280;29633;49.168;9.848;2023-05-14T04:24:30;96794.81;;;15.95;67.93
40992;BME280;29633;49.168;9.848;2023-05-14T04:26:56;96795.59;;;15.95;67.95
40992;BME280;29633;49.168;9.848;2023-05-14T04:29:21;96793.66;;;15.97;68.06
40992;BME280;29633;49.168;9.848;2023-05-14T04:31:48;96794.50;;;15.98;68.20
40992;BME280;29633;49.168;9.848;2023-05-14T04:34:14;96789.25;;;15.98;67.98
40992;BME280;29633;49.168;9.848;2023-05-14T04:36:39;96790.75;;;16.00;68.09
40992;BME280;29633;49.168;9.848;2023-05-14T04:39:05;96795.97;;;16.00;68.04
40992;BME280;29633;49.168;9.848;2023-05-14T04:41:33;96790.59;;;16.02;67.88
40992;BME280;29633;49.168;9.848;2023-05-14T04:43:59;96786.97;;;16.03;67.91
40992;BME280;29633;49.168;9.848;2023-05-14T04:46:26;96792.22;;;16.03;68.03
40992;BME280;29633;49.168;9.848;2023-05-14T04:48:52;96793.88;;;16.04;68.22
40992;BME280;29633;49.168;9.848;2023-05-14T04:51:18;96797.16;;;16.06;68.02
40992;BME280;29633;49.168;9.848;2023-05-14T04:53:43;96786.69;;;16.06;68.14
40992;BME280;29633;49.168;9.848;2023-05-14T04:56:09;96790.94;;;16.07;68.17
40992;BME280;29633;49.168;9.848;2023-05-14T04:58:35;96795.34;;;16.06;68.14
40992;BME280;29633;49.168;9.848;2023-05-14T05:01:03;96790.63;;;16.10;68.20
40992;BME280;29633;49.168;9.848;2023-05-14T05:03:29;96783.75;;;16.09;68.39
40992;BME280;29633;49.168;9.848;2023-05-14T05:05:55;96789.66;;;16.11;68.18
40992;BME280;29633;49.168;9.848;2023-05-14T05:08:21;96790.47;;;16.11;68.32
40992;BME280;29633;49.168;9.848;2023-05-14T05:10:47;96792.13;;;16.12;68.24
40992;BME280;29633;49.168;9.848;2023-05-14T05:13:12;96792.94;;;16.13;68.47
40992;BME280;29633;49.168;9.848;2023-05-14T05:15:38;96787.53;;;16.14;68.53
40992;BME280;29633;49.168;9.848;2023-05-14T05:18:04;96789.00;;;16.17;68.29
40992;BME280;29633;49.168;9.848;2023-05-14T05:20:30;96781.84;;;16.19;68.40
40992;BME280;29633;49.168;9.848;2023-05-14T05:22:56;96787.72;;;16.21;68.46
40992;BME280;29633;49.168;9.848;2023-05-14T05:25:22;96787.44;;;16.24;68.29
40992;BME280;29633;49.168;9.848;2023-05-14T05:27:48;96784.50;;;16.27;68.42
40992;BME280;29633;49.168;9.848;2023-05-14T05:30:13;96784.31;;;16.29;68.28
40992;BME280;29633;49.168;9.848;2023-05-14T05:32:39;96786.94;;;16.29;68.34
40992;BME280;29633;49.168;9.848;2023-05-14T05:35:05;96780.59;;;16.31;68.28
40992;BME280;29633;49.168;9.848;2023-05-14T05:37:31;96780.59;;;16.31;68.45
40992;BME280;29633;49.168;9.848;2023-05-14T05:39:56;96783.53;;;16.36;68.30
40992;BME280;29633;49.168;9.848;2023-05-14T05:42:22;96783.38;;;16.38;68.16
40992;BME280;29633;49.168;9.848;2023-05-14T05:44:48;96782.91;;;16.42;68.29
40992;BME280;29633;49.168;9.848;2023-05-14T05:47:14;96780.81;;;16.46;68.47
40992;BME280;29633;49.168;9.848;2023-05-14T05:49:39;96780.63;;;16.47;68.48
40992;BME280;29633;49.168;9.848;2023-05-14T05:52:05;96781.94;;;16.51;68.17
40992;BME280;29633;49.168;9.848;2023-05-14T05:54:31;96788.81;;;16.52;68.52
40992;BME280;29633;49.168;9.848;2023-05-14T05:56:57;96788.50;;;16.55;68.31
40992;BME280;29633;49.168;9.848;2023-05-14T05:59:23;96786.41;;;16.59;68.34
40992;BME280;29633;49.168;9.848;2023-05-14T06:01:49;96783.47;;;16.62;68.34
40992;BME280;29633;49.168;9.848;2023-05-14T06:04:15;96779.72;;;16.64;68.41
40992;BME280;29633;49.168;9.848;2023-05-14T06:06:40;96776.78;;;16.67;68.18
40992;BME280;29633;49.168;9.848;2023-05-14T06:09:07;96784.13;;;16.72;68.30
40992;BME280;29633;49.168;9.848;2023-05-14T06:11:34;96779.25;;;16.77;68.24
40992;BME280;29633;49.168;9.848;2023-05-14T06:14:00;96771.91;;;16.81;68.12
40992;BME280;29633;49.168;9.848;2023-05-14T06:16:26;96779.44;;;16.84;68.24
40992;BME280;29633;49.168;9.848;2023-05-14T06:18:52;96783.34;;;16.88;68.20
40992;BME280;29633;49.168;9.848;2023-05-14T06:21:18;96784.69;;;16.92;68.12
40992;BME280;29633;49.168;9.848;2023-05-14T06:23:46;96783.38;;;16.96;68.09
40992;BME280;29633;49.168;9.848;2023-05-14T06:26:12;96782.06;;;17.00;68.13
40992;BME280;29633;49.168;9.848;2023-05-14T06:28:38;96780.91;;;17.02;68.27
40992;BME280;29633;49.168;9.848;2023-05-14T06:31:03;96787.28;;;17.08;68.21
40992;BME280;29633;49.168;9.848;2023-05-14T06:33:29;96785.34;;;17.10;68.01
40992;BME280;29633;49.168;9.848;2023-05-14T06:35:59;96786.16;;;17.10;68.26
40992;BME280;29633;49.168;9.848;2023-05-14T06:38:25;96783.88;;;17.15;68.49
40992;BME280;29633;49.168;9.848;2023-05-14T06:40:51;96785.19;;;17.19;68.33
40992;BME280;29633;49.168;9.848;2023-05-14T06:43:19;96788.13;;;17.25;68.33
40992;BME280;29633;49.168;9.848;2023-05-14T06:45:49;96783.38;;;17.28;68.35
40992;BME280;29633;49.168;9.848;2023-05-14T06:48:15;96788.13;;;17.33;68.36
40992;BME280;29633;49.168;9.848;2023-05-14T06:50:43;96776.50;;;17.35;68.17
40992;BME280;29633;49.168;9.848;2023-05-14T06:53:09;96779.44;;;17.40;68.10
40992;BME280;29633;49.168;9.848;2023-05-14T06:55:35;96778.78;;;17.46;68.23
40992;BME280;29633;49.168;9.848;2023-05-14T06:58:01;96774.03;;;17.50;68.18
40992;BME280;29633;49.168;9.848;2023-05-14T07:00:27;96773.53;;;17.54;68.27
40992;BME280;29633;49.168;9.848;2023-05-14T07:02:52;96773.53;;;17.62;68.38
40992;BME280;29633;49.168;9.848;2023-05-14T07:05:18;96772.91;;;17.68;68.23
40992;BME280;29633;49.168;9.848;2023-05-14T07:07:44;96782.69;;;17.75;68.19
40992;BME280;29633;49.168;9.848;2023-05-14T07:10:09;96776.63;;;17.82;68.34
40992;BME280;29633;49.168;9.848;2023-05-14T07:12:35;96780.22;;;17.89;68.03
40992;BME280;29633;49.168;9.848;2023-05-14T07:15:01;96777.72;;;17.96;68.23
40992;BME280;29633;49.168;9.848;2023-05-14T07:17:27;96783.28;;;18.01;67.93
40992;BME280;29633;49.168;9.848;2023-05-14T07:19:52;96776.53;;;18.06;68.29
40992;BME280;29633;49.168;9.848;2023-05-14T07:22:20;96776.03;;;18.11;67.81
40992;BME280;29633;49.168;9.848;2023-05-14T07:24:46;96775.69;;;18.14;67.97
40992;BME280;29633;49.168;9.848;2023-05-14T07:27:12;96770.78;;;18.19;68.16
40992;BME280;29633;49.168;9.848;2023-05-14T07:29:37;96772.69;;;18.25;68.05
40992;BME280;29633;49.168;9.848;2023-05-14T07:32:03;96776.63;;;18.29;68.17
40992;BME280;29633;49.168;9.848;2023-05-14T07:34:29;96771.03;;;18.32;68.15
40992;BME280;29633;49.168;9.848;2023-05-14T07:36:55;96771.66;;;18.34;68.40
40992;BME280;29633;49.168;9.848;2023-05-14T07:39:20;96768.72;;;18.37;68.34
40992;BME280;29633;49.168;9.848;2023-05-14T07:41:46;96771.81;;;18.41;68.31
40992;BME280;29633;49.168;9.848;2023-05-14T07:44:12;96781.78;;;18.45;68.46
40992;BME280;29633;49.168;9.848;2023-05-14T07:46:37;96776.22;;;18.48;68.48
40992;BME280;29633;49.168;9.848;2023-05-14T07:49:03;96778.16;;;18.54;68.42
40992;BME280;29633;49.168;9.848;2023-05-14T07:51:29;96774.84;;;18.60;68.36
40992;BME280;29633;49.168;9.848;2023-05-14T07:53:54;96779.59;;;18.65;68.13
40992;BME280;29633;49.168;9.848;2023-05-14T07:56:21;96776.25;;;18.71;68.24
40992;BME280;29633;49.168;9.848;2023-05-14T07:58:47;96774.75;;;18.77;68.13
40992;BME280;29633;49.168;9.848;2023-05-14T08:01:12;96772.41;;;18.82;68.33
40992;BME280;29633;49.168;9.848;2023-05-14T08:03:38;96772.72;;;18.87;68.30
40992;BME280;29633;49.168;9.848;2023-05-14T08:06:04;96769.75;;;18.90;68.23
40992;BME280;29633;49.168;9.848;2023-05-14T08:08:30;96767.41;;;18.95;68.04
40992;BME280;29633;49.168;9.848;2023-05-14T08:10:55;96765.41;;;18.97;68.09
40992;BME280;29633;49.168;9.848;2023-05-14T08:13:21;96770.16;;;19.01;68.11
40992;BME280;29633;49.168;9.848;2023-05-14T08:15:47;96773.25;;;19.05;68.32
40992;BME280;29633;49.168;9.848;2023-05-14T08:18:13;96766.66;;;19.09;68.19
40992;BME280;29633;49.168;9.848;2023-05-14T08:20:39;96766.94;;;19.14;67.99
40992;BME280;29633;49.168;9.848;2023-05-14T08:23:07;96766.41;;;19.18;68.09
40992;BME280;29633;49.168;9.848;2023-05-14T08:25:33;96760.63;;;19.23;68.25
40992;BME280;29633;49.168;9.848;2023-05-14T08:27:59;96756.47;;;19.29;68.23
40992;BME280;29633;49.168;9.848;2023-05-14T08:30:26;96755.09;;;19.33;67.98
40992;BME280;29633;49.168;9.848;2023-05-14T08:32:51;96753.59;;;19.38;68.17
40992;BME280;29633;49.168;9.848;2023-05-14T08:35:17;96745.38;;;19.41;67.99
40992;BME280;29633;49.168;9.848;2023-05-14T08:37:43;96750.75;;;19.48;68.16
40992;BME280;29633;49.168;9.848;2023-05-14T08:40:09;96753.47;;;19.54;68.10
40992;BME280;29633;49.168;9.848;2023-05-14T08:42:37;96753.56;;;19.61;67.89
40992;BME280;29633;49.168;9.848;2023-05-14T08:45:05;96753.03;;;19.65;67.72
40992;BME280;29633;49.168;9.848;2023-05-14T08:47:33;96754.31;;;19.70;67.87
40992;BME280;29633;49.168;9.848;2023-05-14T08:50:04;96746.03;;;19.73;67.86
40992;BME280;29633;49.168;9.848;2023-05-14T08:52:31;96753.56;;;19.76;67.95
40992;BME280;29633;49.168;9.848;2023-05-14T08:55:02;96745.31;;;19.79;67.93
40992;BME280;29633;49.168;9.848;2023-05-14T08:57:29;96742.69;;;19.79;67.85
40992;BME280;29633;49.168;9.848;2023-05-14T08:59:55;96742.97;;;19.84;67.78
40992;BME280;29633;49.168;9.848;2023-05-14T09:02:27;96749.66;;;19.86;67.74
40992;BME280;29633;49.168;9.848;2023-05-14T09:04:58;96744.88;;;19.90;67.86
40992;BME280;29633;49.168;9.848;2023-05-14T09:07:25;96747.94;;;19.93;67.59
40992;BME280;29633;49.168;9.848;2023-05-14T09:09:51;96744.16;;;19.96;67.91
40992;BME280;29633;49.168;9.848;2023-05-14T09:12:17;96743.59;;;20.00;67.91
40992;BME280;29633;49.168;9.848;2023-05-14T09:14:44;96742.06;;;20.06;67.99
40992;BME280;29633;49.168;9.848;2023-05-14T09:17:12;96744.97;;;20.11;67.87
40992;BME280;29633;49.168;9.848;2023-05-14T09:19:39;96744.97;;;20.11;67.84
40992;BME280;29633;49.168;9.848;2023-05-14T09:22:07;96742.97;;;20.13;67.62
40992;BME280;29633;49.168;9.848;2023-05-14T09:24:33;96739.34;;;20.14;67.68
40992;BME280;29633;49.168;9.848;2023-05-14T09:27:00;96742.59;;;20.16;67.63
40992;BME280;29633;49.168;9.848;2023-05-14T09:29:27;96735.13;;;20.20;67.86
40992;BME280;29633;49.168;9.848;2023-05-14T09:31:54;96732.50;;;20.20;67.84
40992;BME280;29633;49.168;9.848;2023-05-14T09:36:51;96740.84;;;20.23;67.52
40992;BME280;29633;49.168;9.848;2023-05-14T09:39:18;96743.94;;;20.27;67.65
40992;BME280;29633;49.168;9.848;2023-05-14T09:41:44;96736.03;;;20.27;67.69
40992;BME280;29633;49.168;9.848;2023-05-14T09:44:09;96741.97;;;20.29;67.52
40992;BME280;29633;49.168;9.848;2023-05-14T09:46:35;96742.97;;;20.28;67.47
40992;BME280;29633;49.168;9.848;2023-05-14T09:49:01;96738.31;;;20.30;67.69
40992;BME280;29633;49.168;9.848;2023-05-14T09:51:29;96738.53;;;20.28;67.77
40992;BME280;29633;49.168;9.848;2023-05-14T09:53:55;96736.84;;;20.27;67.64
40992;BME280;29633;49.168;9.848;2023-05-14T09:56:21;96740.69;;;20.25;67.58
40992;BME280;29633;49.168;9.848;2023-05-14T09:58:48;96739.88;;;20.24;67.69
40992;BME280;29633;49.168;9.848;2023-05-14T10:01:14;96736.25;;;20.25;67.82
40992;BME280;29633;49.168;9.848;2023-05-14T10:03:43;96741.84;;;20.22;67.56
40992;BME280;29633;49.168;9.848;2023-05-14T10:06:08;96730.53;;;20.22;67.42
40992;BME280;29633;49.168;9.848;2023-05-14T10:08:40;96733.31;;;20.20;67.47
40992;BME280;29633;49.168;9.848;2023-05-14T10:11:10;96729.72;;;20.21;67.68
40992;BME280;29633;49.168;9.848;2023-05-14T10:13:40;96725.44;;;20.20;67.64
40992;BME280;29633;49.168;9.848;2023-05-14T10:18:39;96722.63;;;20.22;67.76
40992;BME280;29633;49.168;9.848;2023-05-14T10:21:05;96720.44;;;20.25;68.01
40992;BME280;29633;49.168;9.848;2023-05-14T10:23:32;96723.69;;;20.27;67.75
40992;BME280;29633;49.168;9.848;2023-05-14T10:25:58;96721.91;;;20.28;67.53
40992;BME280;29633;49.168;9.848;2023-05-14T10:28:25;96723.34;;;20.30;67.42
40992;BME280;29633;49.168;9.848;2023-05-14T10:30:51;96718.72;;;20.32;67.46
40992;BME280;29633;49.168;9.848;2023-05-14T10:33:16;96715.72;;;20.35;67.40
40992;BME280;29633;49.168;9.848;2023-05-14T10:38:29;96725.50;;;20.41;67.49
40992;BME280;29633;49.168;9.848;2023-05-14T10:40:59;96718.25;;;20.43;67.37
40992;BME280;29633;49.168;9.848;2023-05-14T10:43:26;96709.97;;;20.46;67.59
40992;BME280;29633;49.168;9.848;2023-05-14T10:45:54;96719.53;;;20.47;67.25
40992;BME280;29633;49.168;9.848;2023-05-14T10:48:20;96711.25;;;20.50;67.44
40992;BME280;29633;49.168;9.848;2023-05-14T10:50:52;96711.47;;;20.55;67.07
40992;BME280;29633;49.168;9.848;2023-05-14T10:53:18;96710.31;;;20.58;67.10
40992;BME280;29633;49.168;9.848;2023-05-14T10:55:44;96704.66;;;20.61;67.18
40992;BME280;29633;49.168;9.848;2023-05-14T10:58:11;96707.09;;;20.62;67.23
40992;BME280;29633;49.168;9.848;2023-05-14T11:00:37;96706.53;;;20.67;67.36
40992;BME280;29633;49.168;9.848;2023-05-14T11:03:04;96703.34;;;20.72;67.26
40992;BME280;29633;49.168;9.848;2023-05-14T11:05:30;96707.25;;;20.76;66.94
40992;BME280;29633;49.168;9.848;2023-05-14T11:07:57;96704.41;;;20.77;66.97
40992;BME280;29633;49.168;9.848;2023-05-14T11:10:23;96711.13;;;20.80;66.99
40992;BME280;29633;49.168;9.848;2023-05-14T11:12:55;96711.38;;;20.85;66.95
40992;BME280;29633;49.168;9.848;2023-05-14T11:15:22;96702.91;;;20.89;67.20
40992;BME280;29633;49.168;9.848;2023-05-14T11:17:49;96696.66;;;20.90;67.19
40992;BME280;29633;49.168;9.848;2023-05-14T11:20:18;96698.25;;;20.91;66.98
40992;BME280;29633;49.168;9.848;2023-05-14T11:22:44;96691.59;;;20.95;67.09
40992;BME280;29633;49.168;9.848;2023-05-14T11:25:13;96691.22;;;20.98;67.00
40992;BME280;29633;49.168;9.848;2023-05-14T11:27:40;96696.31;;;21.00;66.85
40992;BME280;29633;49.168;9.848;2023-05-14T11:32:38;96681.75;;;21.04;66.91
40992;BME280;29633;49.168;9.848;2023-05-14T11:35:05;96677.72;;;21.08;67.07
40992;BME280;29633;49.168;9.848;2023-05-14T11:37:31;96692.81;;;21.14;66.78
40992;BME280;29633;49.168;9.848;2023-05-14T11:39:59;96682.53;;;21.19;66.73
40992;BME280;29633;49.168;9.848;2023-05-14T11:42:25;96677.47;;;21.24;66.94
40992;BME280;29633;49.168;9.848;2023-05-14T11:44:51;96674.44;;;21.27;66.79
40992;BME280;29633;49.168;9.848;2023-05-14T11:47:19;96672.88;;;21.33;67.04
40992;BME280;29633;49.168;9.848;2023-05-14T11:49:46;96670.09;;;21.41;66.58
40992;BME280;29633;49.168;9.848;2023-05-14T11:52:13;96671.13;;;21.46;66.72
40992;BME280;29633;49.168;9.848;2023-05-14T11:54:40;96669.75;;;21.50;66.92
40992;BME280;29633;49.168;9.848;2023-05-14T11:57:09;96674.22;;;21.56;66.81
40992;BME280;29633;49.168;9.848;2023-05-14T11:59:35;96673.47;;;21.63;67.17
40992;BME280;29633;49.168;9.848;2023-05-14T12:02:01;96673.69;;;21.68;66.93
40992;BME280;29633;49.168;9.848;2023-05-14T12:04:28;96678.78;;;21.69;66.76
40992;BME280;29633;49.168;9.848;2023-05-14T12:06:57;96679.22;;;21.73;66.72
40992;BME280;29633;49.168;9.848;2023-05-14T12:09:23;96670.91;;;21.76;66.78
40992;BME280;29633;49.168;9.848;2023-05-14T12:11:49;96666.03;;;21.79;66.89
40992;BME280;29633;49.168;9.848;2023-05-14T12:16:45;96659.38;;;21.83;66.68
40992;BME280;29633;49.168;9.848;2023-05-14T12:19:14;96663.03;;;21.89;66.79
40992;BME280;29633;49.168;9.848;2023-05-14T12:21:42;96659.41;;;21.90;66.70
40992;BME280;29633;49.168;9.848;2023-05-14T12:24:19;96658.56;;;21.89;66.91
40992;BME280;29633;49.168;9.848;2023-05-14T12:26:46;96657.41;;;21.92;66.97
40992;BME280;29633;49.168;9.848;2023-05-14T12:29:13;96653.75;;;21.93;66.67
40992;BME280;29633;49.168;9.848;2023-05-14T12:31:49;96647.28;;;21.95;66.95
40992;BME280;29633;49.168;9.848;2023-05-14T12:34:15;96648.88;;;21.96;66.62
40992;BME280;29633;49.168;9.848;2023-05-14T12:36:42;96643.84;;;22.01;66.73
40992;BME280;29633;49.168;9.848;2023-05-14T12:39:08;96650.38;;;22.05;66.89
40992;BME280;29633;49.168;9.848;2023-05-14T12:41:34;96644.88;;;22.07;66.61
40992;BME280;29633;49.168;9.848;2023-05-14T12:44:02;96647.31;;;22.08;66.55
40992;BME280;29633;49.168;9.848;2023-05-14T12:46:28;96642.03;;;22.08;66.47
40992;BME280;29633;49.168;9.848;2023-05-14T12:48:54;96635.75;;;22.10;66.47
40992;BME280;29633;49.168;9.848;2023-05-14T12:51:20;96638.41;;;22.10;66.38
40992;BME280;29633;49.168;9.848;2023-05-14T12:53:45;96640.00;;;22.11;66.52
40992;BME280;29633;49.168;9.848;2023-05-14T12:56:11;96636.38;;;22.12;66.49
40992;BME280;29633;49.168;9.848;2023-05-14T12:58:37;96632.91;;;22.11;66.18
40992;BME280;29633;49.168;9.848;2023-05-14T13:01:03;96628.66;;;22.10;66.45
40992;BME280;29633;49.168;9.848;2023-05-14T13:03:30;96626.19;;;22.08;66.10
40992;BME280;29633;49.168;9.848;2023-05-14T13:05:55;96628.84;;;22.08;66.18
40992;BME280;29633;49.168;9.848;2023-05-14T13:08:23;96631.28;;;22.10;66.25
40992;BME280;29633;49.168;9.848;2023-05-14T13:10:51;96626.81;;;22.11;65.98
40992;BME280;29633;49.168;9.848;2023-05-14T13:13:17;96623.16;;;22.12;66.04